Terminal Aerodrome Forecast
Issued by NWS

Home | Current Version | Previous Version | Text Only | Print | Product List | Glossary On
Versions: 1 2 3 4 5 6 7 8 9 10 11 12 13 14 15 16
000
FTUS46 KMTR 261700
TAFSTS
TAF
KSTS 261738Z 2618/2718 00000KT 6SM BR SCT120 BKN200
     FM262000 16003KT P6SM SCT120 BKN200
     FM270400 VRB03KT P6SM BKN120 OVC200
     FM270600 00000KT 3SM BR BKN120 OVC200
     FM271200 00000KT 1/2SM FG VV002
     FM271700 VRB03KT 4SM BR SCT080 BKN120=

USA.gov is the U.S. government's official web portal to all federal, state and local government web resources and services.